createdAt,value
2016-04-25T00:00:54.391Z,19.31
2016-04-25T00:01:51.125Z,19.21
2016-04-25T00:02:51.080Z,19.21
2016-04-25T00:03:51.035Z,19.12
2016-04-25T00:04:54.011Z,19.12
2016-04-25T00:05:53.966Z,19.21
2016-04-25T00:06:51.091Z,19.11
2016-04-25T00:07:50.843Z,19.12
2016-04-25T00:08:50.799Z,19.12
2016-04-25T00:09:56.758Z,19.21
2016-04-25T00:10:50.696Z,19.31
2016-04-25T00:11:50.683Z,19.4
2016-04-25T00:12:51.185Z,19.12
2016-04-25T00:13:53.768Z,19.21
2016-04-25T00:14:59.724Z,19.02
2016-04-25T00:15:53.490Z,19.31
2016-04-25T00:16:53.431Z,19.21
2016-04-25T00:17:53.574Z,19.31
2016-04-25T00:18:50.342Z,19.21
2016-04-25T00:19:50.281Z,19.4
2016-04-25T00:20:50.237Z,19.31
2016-04-25T00:21:50.195Z,19.21
2016-04-25T00:22:50.139Z,19.4
2016-04-25T00:23:50.111Z,19.31
2016-04-25T00:24:56.054Z,19.21
2016-04-25T00:25:53.210Z,19.12
2016-04-25T00:26:53.540Z,19.21
2016-04-25T00:27:51.106Z,19.4
2016-04-25T00:28:49.843Z,19.12
2016-04-25T00:29:52.798Z,19.12
2016-04-25T00:30:52.756Z,19.12
2016-04-25T00:31:52.726Z,19.2
2016-04-25T00:32:52.870Z,19.31
2016-04-25T00:33:52.639Z,19.21
2016-04-25T00:34:49.562Z,19.21
2016-04-25T00:35:49.534Z,19.21
2016-04-25T00:36:49.474Z,18.93
2016-04-25T00:37:52.431Z,19.12
2016-04-25T00:38:49.558Z,19.31
2016-04-25T00:39:52.342Z,19.21
2016-04-25T00:40:52.282Z,19.4
2016-04-25T00:41:49.238Z,19.21
2016-04-25T00:42:49.021Z,19.21
2016-04-25T00:43:49.166Z,19.12
2016-04-25T00:44:49.089Z,19.4
2016-04-25T00:45:49.249Z,19.2
2016-04-25T00:46:52.001Z,19.21
2016-04-25T00:47:48.942Z,19.4
2016-04-25T00:48:52.116Z,19.21
2016-04-25T00:49:48.885Z,19.21
2016-04-25T00:50:48.809Z,19.11
2016-04-25T00:51:48.749Z,19.3
2016-04-25T00:52:54.954Z,19.21
2016-04-25T00:53:55.068Z,19.12
2016-04-25T00:54:48.616Z,19.2
2016-04-25T00:55:48.573Z,19.2
2016-04-25T00:56:48.528Z,19.3
2016-04-25T00:57:48.329Z,19.3
2016-04-25T00:58:48.424Z,19.5
2016-04-25T00:59:48.427Z,19.3
2016-04-25T01:00:48.336Z,19.2
2016-04-25T01:01:51.306Z,19.11
2016-04-25T01:02:51.231Z,19.11
2016-04-25T01:03:51.220Z,19.11
2016-04-25T01:04:51.159Z,19.11
2016-04-25T01:05:48.287Z,19.4
2016-04-25T01:06:48.055Z,19.2
2016-04-25T01:07:48.011Z,19.11
2016-04-25T01:08:47.967Z,19.2
2016-04-25T01:09:53.907Z,19.01
2016-04-25T01:10:53.863Z,19.4
2016-04-25T01:11:53.818Z,19.12
2016-04-25T01:12:48.024Z,19.11
2016-04-25T01:13:51.027Z,19.21
2016-04-25T01:14:47.670Z,19.2
2016-04-25T01:15:47.626Z,19.11
2016-04-25T01:16:48.175Z,19.01
2016-04-25T01:17:47.366Z,19.2
2016-04-25T01:18:47.494Z,19.2
2016-04-25T01:19:50.637Z,19.3
2016-04-25T01:20:47.374Z,19.4
2016-04-25T01:21:47.329Z,19.21
2016-04-25T01:22:50.599Z,19.3
2016-04-25T01:23:47.241Z,19.31
2016-04-25T01:24:50.196Z,19.11
2016-04-25T01:25:47.153Z,19.12
2016-04-25T01:26:47.109Z,19.2
2016-04-25T01:27:47.049Z,19.3
2016-04-25T01:28:47.005Z,19.2
2016-04-25T01:29:46.960Z,19.4
2016-04-25T01:30:49.901Z,19.2
2016-04-25T01:31:46.873Z,19.31
2016-04-25T01:32:46.828Z,19.02
2016-04-25T01:33:49.815Z,19.31
2016-04-25T01:34:46.709Z,19.31
2016-04-25T01:35:46.680Z,19.21
2016-04-25T01:36:46.636Z,19.12
2016-04-25T01:37:46.576Z,19.2
2016-04-25T01:38:49.844Z,19.4
2016-04-25T01:39:49.503Z,19.21
2016-04-25T01:40:49.428Z,19.31
2016-04-25T01:41:46.400Z,19.11
2016-04-25T01:42:46.199Z,19.49
2016-04-25T01:43:46.279Z,19.2
2016-04-25T01:44:46.235Z,19.2
2016-04-25T01:45:46.488Z,19.2
2016-04-25T01:46:46.147Z,19.12
2016-04-25T01:47:49.103Z,19.11
2016-04-25T01:48:49.058Z,19.2
2016-04-25T01:49:45.999Z,19.11
2016-04-25T01:50:48.955Z,19.11
2016-04-25T01:51:45.910Z,19.01
2016-04-25T01:52:45.960Z,19.4
2016-04-25T01:53:46.025Z,19.3
2016-04-25T01:54:48.778Z,19.11
2016-04-25T01:55:48.937Z,19.11
2016-04-25T01:56:48.690Z,19.49
2016-04-25T01:57:45.629Z,19.4
2016-04-25T01:58:51.617Z,19.12
2016-04-25T01:59:45.526Z,19.2
2016-04-25T02:00:45.497Z,19.4
2016-04-25T02:01:48.938Z,19.12
2016-04-25T02:02:45.596Z,19.2
2016-04-25T02:03:48.349Z,19.11
2016-04-25T02:04:51.304Z,19.2
2016-04-25T02:05:48.261Z,19.2
2016-04-25T02:06:51.217Z,19.11
2016-04-25T02:07:45.173Z,19.2
2016-04-25T02:08:45.315Z,19.4
2016-04-25T02:09:45.068Z,19.2
2016-04-25T02:10:48.024Z,19.2
2016-04-25T02:11:47.981Z,19.2
2016-04-25T02:12:45.170Z,19.3
2016-04-25T02:13:44.860Z,19.01
2016-04-25T02:14:44.831Z,19.11
2016-04-25T02:15:44.772Z,19.2
2016-04-25T02:16:44.728Z,19.11
2016-04-25T02:17:44.683Z,19.11
2016-04-25T02:18:44.624Z,19.2
2016-04-25T02:19:44.594Z,19.2
2016-04-25T02:20:47.535Z,19.3
2016-04-25T02:21:44.492Z,19.2
2016-04-25T02:22:44.447Z,19.2
2016-04-25T02:23:44.402Z,19.11
2016-04-25T02:24:44.358Z,19.2
2016-04-25T02:25:44.298Z,19.2
2016-04-25T02:26:44.271Z,19.11
2016-04-25T02:27:44.571Z,19.3
2016-04-25T02:28:44.165Z,19.2
2016-04-25T02:29:44.107Z,19.11
2016-04-25T02:30:44.062Z,19.2
2016-04-25T02:31:44.002Z,19.2
2016-04-25T02:32:46.974Z,19.2
2016-04-25T02:33:44.133Z,19.11
2016-04-25T02:34:46.980Z,19.11
2016-04-25T02:35:43.888Z,19.11
2016-04-25T02:36:43.765Z,19.2
2016-04-25T02:37:46.722Z,19.4
2016-04-25T02:38:43.974Z,19.2
2016-04-25T02:39:43.633Z,19.12
2016-04-25T02:40:43.590Z,19.21
2016-04-25T02:41:43.654Z,19.21
2016-04-25T02:42:43.751Z,19.31
2016-04-25T02:43:43.863Z,19.2
2016-04-25T02:44:43.397Z,19.4
2016-04-25T02:45:43.744Z,19.3
2016-04-25T02:46:43.293Z,19.2
2016-04-25T02:47:43.561Z,19.11
2016-04-25T02:48:43.205Z,19.2
2016-04-25T02:49:52.411Z,19.2
2016-04-25T02:50:46.132Z,19.21
2016-04-25T02:51:43.260Z,19.4
2016-04-25T02:52:43.028Z,19.2
2016-04-25T02:53:42.968Z,19.2
2016-04-25T02:54:46.346Z,19.4
2016-04-25T02:55:43.379Z,19.2
2016-04-25T02:56:42.852Z,19.11
2016-04-25T02:57:43.385Z,19.2
2016-04-25T02:58:43.138Z,19.11
2016-04-25T02:59:45.719Z,19.2
2016-04-25T03:00:42.721Z,19.3
2016-04-25T03:01:42.630Z,19.4
2016-04-25T03:02:42.742Z,19.01
2016-04-25T03:03:42.496Z,19.11
2016-04-25T03:04:42.451Z,19.11
2016-04-25T03:05:48.406Z,19.11
2016-04-25T03:06:45.363Z,19.11
2016-04-25T03:07:45.318Z,19.2
2016-04-25T03:08:42.273Z,19.11
2016-04-25T03:09:42.214Z,19.11
2016-04-25T03:10:42.186Z,19.4
2016-04-25T03:11:42.329Z,19.11
2016-04-25T03:12:41.925Z,19.11
2016-04-25T03:13:48.819Z,19.2
2016-04-25T03:14:41.962Z,19.3
2016-04-25T03:15:41.949Z,19.2
2016-04-25T03:16:42.280Z,19.3
2016-04-25T03:17:41.876Z,19.3
2016-04-25T03:18:41.785Z,19.4
2016-04-25T03:19:44.789Z,19.01
2016-04-25T03:20:44.697Z,19.2
2016-04-25T03:21:44.668Z,19.2
2016-04-25T03:22:44.608Z,19.2
2016-04-25T03:23:41.533Z,19.11
2016-04-25T03:24:41.488Z,19.11
2016-04-25T03:25:44.476Z,19.2
2016-04-25T03:26:44.416Z,19.11
2016-04-25T03:27:44.466Z,19.3
2016-04-25T03:28:48.030Z,19.49
2016-04-25T03:29:41.268Z,19.2
2016-04-25T03:30:41.207Z,19.4
2016-04-25T03:31:44.179Z,19.2
2016-04-25T03:32:44.433Z,19.2
2016-04-25T03:33:44.075Z,19.2
2016-04-25T03:34:41.032Z,19.3
2016-04-25T03:35:43.987Z,19.11
2016-04-25T03:36:43.927Z,19.11
2016-04-25T03:37:43.868Z,19.4
2016-04-25T03:38:43.839Z,19.2
2016-04-25T03:39:43.998Z,19.4
2016-04-25T03:40:40.734Z,19.11
2016-04-25T03:41:40.690Z,19.2
2016-04-25T03:42:49.553Z,19.2
2016-04-25T03:43:40.775Z,19.2
2016-04-25T03:44:40.558Z,19.3
2016-04-25T03:45:43.561Z,19.4
2016-04-25T03:46:40.454Z,19.4
2016-04-25T03:47:40.411Z,19.2
2016-04-25T03:48:40.366Z,19.3
2016-04-25T03:49:40.322Z,19.3
2016-04-25T03:50:43.278Z,19.11
2016-04-25T03:51:43.217Z,19.3
2016-04-25T03:52:43.189Z,19.11
2016-04-25T03:53:40.317Z,19.11
2016-04-25T03:54:43.085Z,19.2
2016-04-25T03:55:40.025Z,19.3
2016-04-25T03:56:42.981Z,19.11
2016-04-25T03:57:40.141Z,19.3
2016-04-25T03:58:40.080Z,19.11
2016-04-25T03:59:39.832Z,19.2
2016-04-25T04:00:39.788Z,19.3
2016-04-25T04:01:42.745Z,19.3
2016-04-25T04:02:39.888Z,19.3
2016-04-25T04:03:39.656Z,19.3
2016-04-25T04:04:39.596Z,19.3
2016-04-25T04:05:39.552Z,19.4
2016-04-25T04:06:39.571Z,19.2
2016-04-25T04:07:42.479Z,19.11
2016-04-25T04:08:39.248Z,19.2
2016-04-25T04:09:39.360Z,19.4
2016-04-25T04:10:39.316Z,19.3
2016-04-25T04:11:39.256Z,19.2
2016-04-25T04:12:39.836Z,19.4
2016-04-25T04:13:42.183Z,19.2
2016-04-25T04:14:39.124Z,19.11
2016-04-25T04:15:42.501Z,19.11
2016-04-25T04:16:42.051Z,19.2
2016-04-25T04:17:38.975Z,19.4
2016-04-25T04:18:38.931Z,19.2
2016-04-25T04:19:41.887Z,19.11
2016-04-25T04:20:41.842Z,19.2
2016-04-25T04:21:42.018Z,19.2
2016-04-25T04:22:44.755Z,19.11
2016-04-25T04:23:41.711Z,19.11
2016-04-25T04:24:38.650Z,19.11
2016-04-25T04:25:39.497Z,19.3
2016-04-25T04:26:38.546Z,19.2
2016-04-25T04:27:41.503Z,19.4
2016-04-25T04:28:41.317Z,19.2
2016-04-25T04:29:41.414Z,19.2
2016-04-25T04:30:44.401Z,19.2
2016-04-25T04:31:38.310Z,19.2
2016-04-25T04:32:38.468Z,19.2
2016-04-25T04:33:38.222Z,19.3
2016-04-25T04:34:41.162Z,19.3
2016-04-25T04:35:44.352Z,19.2
2016-04-25T04:36:41.088Z,19.2
2016-04-25T04:37:41.045Z,19.2
2016-04-25T04:38:44.001Z,19.11
2016-04-25T04:39:37.956Z,19.11
2016-04-25T04:40:37.881Z,19.11
2016-04-25T04:41:37.837Z,19.11
2016-04-25T04:42:37.809Z,19.3
2016-04-25T04:43:37.748Z,19.2
2016-04-25T04:44:37.704Z,19.2
2016-04-25T04:45:37.644Z,19.2
2016-04-25T04:46:37.601Z,19.3
2016-04-25T04:47:37.556Z,19.3
2016-04-25T04:48:37.512Z,19.3
2016-04-25T04:49:37.639Z,19.3
2016-04-25T04:50:40.408Z,19.3
2016-04-25T04:51:37.364Z,19.4
2016-04-25T04:52:37.320Z,19.2
2016-04-25T04:53:37.259Z,19.2
2016-04-25T04:54:40.622Z,19.2
2016-04-25T04:55:37.483Z,19.01
2016-04-25T04:56:37.127Z,19.2
2016-04-25T04:57:37.099Z,19.11
2016-04-25T04:58:43.038Z,19.4
2016-04-25T04:59:40.025Z,19.4
2016-04-25T05:00:37.153Z,19.3
2016-04-25T05:01:36.891Z,19.11
2016-04-25T05:02:40.143Z,19.11
2016-04-25T05:03:36.786Z,19.2
2016-04-25T05:04:39.758Z,19.11
2016-04-25T05:05:42.699Z,19.2
2016-04-25T05:06:39.857Z,19.11
2016-04-25T05:07:36.594Z,19.11
2016-04-25T05:08:36.549Z,19.3
2016-04-25T05:09:36.537Z,19.2
2016-04-25T05:10:39.774Z,19.2
2016-04-25T05:11:36.808Z,19.4
2016-04-25T05:12:36.425Z,19.11
2016-04-25T05:13:39.596Z,19.11
2016-04-25T05:14:42.409Z,19.11
2016-04-25T05:15:36.377Z,19.11
2016-04-25T05:16:36.393Z,19.3
2016-04-25T05:17:36.370Z,19.11
2016-04-25T05:18:39.639Z,19.4
2016-04-25T05:19:36.298Z,19.2
2016-04-25T05:20:39.473Z,19.11
2016-04-25T05:21:39.225Z,19.4
2016-04-25T05:22:36.204Z,19.2
2016-04-25T05:23:39.166Z,19.2
2016-04-25T05:24:36.113Z,19.3
2016-04-25T05:25:36.074Z,19.3
2016-04-25T05:26:39.019Z,19.4
2016-04-25T05:27:36.040Z,19.4
2016-04-25T05:28:36.498Z,19.11
2016-04-25T05:29:35.143Z,19.2
2016-04-25T05:30:38.852Z,19.11
2016-04-25T05:31:35.793Z,19.2
2016-04-25T05:32:35.749Z,19.3
2016-04-25T05:33:35.722Z,19.01
2016-04-25T05:34:35.663Z,19.2
2016-04-25T05:35:35.620Z,19.11
2016-04-25T05:36:35.576Z,19.3
2016-04-25T05:37:38.517Z,19.4
2016-04-25T05:38:35.472Z,19.49
2016-04-25T05:39:35.430Z,19.59
2016-04-25T05:40:35.386Z,19.4
2016-04-25T05:41:35.326Z,19.11
2016-04-25T05:42:38.281Z,19.01
2016-04-25T05:43:35.379Z,19.11
2016-04-25T05:44:38.178Z,19.01
2016-04-25T05:45:35.336Z,19.2
2016-04-25T05:46:35.167Z,19.3
2016-04-25T05:47:35.045Z,19.01
2016-04-25T05:48:34.986Z,19.11
2016-04-25T05:49:34.958Z,19.11
2016-04-25T05:50:37.913Z,19.2
2016-04-25T05:51:40.868Z,19.11
2016-04-25T05:52:34.794Z,19.2
2016-04-25T05:53:34.749Z,19.11
2016-04-25T05:54:34.704Z,19.4
2016-04-25T05:55:34.677Z,19.3
2016-04-25T05:56:34.616Z,19.68
2016-04-25T05:57:37.604Z,19.49
2016-04-25T05:58:34.528Z,19.59
2016-04-25T05:59:37.499Z,19.4
2016-04-25T06:00:37.424Z,19.49
2016-04-25T06:01:37.395Z,19.4
2016-04-25T06:02:34.321Z,19.4
2016-04-25T06:03:34.291Z,19.2
2016-04-25T06:04:34.247Z,19.49
2016-04-25T06:05:34.204Z,19.4
2016-04-25T06:06:37.143Z,19.49
2016-04-25T06:07:34.084Z,19.3
2016-04-25T06:08:37.055Z,19.3
2016-04-25T06:09:33.995Z,19.4
2016-04-25T06:10:33.951Z,19.4
2016-04-25T06:11:33.906Z,19.2
2016-04-25T06:12:33.862Z,19.4
2016-04-25T06:13:34.818Z,19.68
2016-04-25T06:14:36.759Z,19.78
2016-04-25T06:15:36.714Z,19.49
2016-04-25T06:16:33.686Z,19.3
2016-04-25T06:17:33.626Z,19.3
2016-04-25T06:18:33.566Z,19.3
2016-04-25T06:19:36.522Z,19.2
2016-04-25T06:20:33.462Z,19.49
2016-04-25T06:21:33.418Z,19.3
2016-04-25T06:22:33.390Z,19.4
2016-04-25T06:23:33.331Z,19.11
2016-04-25T06:24:33.505Z,19.68
2016-04-25T06:25:33.258Z,19.11
2016-04-25T06:26:33.198Z,19.49
2016-04-25T06:27:33.139Z,19.11
2016-04-25T06:28:33.969Z,19.68
2016-04-25T06:29:42.159Z,19.88
2016-04-25T06:30:36.022Z,19.78
2016-04-25T06:31:32.977Z,19.78
2016-04-25T06:32:32.902Z,19.68
2016-04-25T06:33:32.858Z,19.68
2016-04-25T06:34:32.813Z,19.78
2016-04-25T06:35:35.754Z,19.78
2016-04-25T06:36:38.710Z,19.78
2016-04-25T06:37:32.712Z,19.97
2016-04-25T06:38:32.841Z,19.59
2016-04-25T06:39:35.576Z,19.97
2016-04-25T06:40:32.517Z,20.07
2016-04-25T06:41:32.473Z,20.17
2016-04-25T06:42:38.460Z,20.17
2016-04-25T06:43:35.603Z,19.88
2016-04-25T06:44:35.325Z,19.68
2016-04-25T06:45:38.296Z,19.97
2016-04-25T06:46:32.283Z,20.07
2016-04-25T06:47:35.192Z,19.97
2016-04-25T06:48:35.430Z,20.07
2016-04-25T06:49:32.103Z,19.88
2016-04-25T06:50:32.044Z,20.07
2016-04-25T06:51:38.015Z,19.97
2016-04-25T06:52:32.143Z,19.88
2016-04-25T06:53:37.911Z,19.88
2016-04-25T06:54:31.852Z,19.88
2016-04-25T06:55:34.823Z,19.78
2016-04-25T06:56:31.764Z,19.97
2016-04-25T06:57:34.906Z,19.88
2016-04-25T06:58:31.862Z,19.97
2016-04-25T06:59:31.615Z,19.88
2016-04-25T07:00:34.571Z,19.88
2016-04-25T07:01:31.527Z,19.68
2016-04-25T07:02:31.591Z,19.78
2016-04-25T07:03:31.422Z,19.88
2016-04-25T07:04:31.378Z,19.78
2016-04-25T07:05:31.334Z,19.88
2016-04-25T07:06:31.478Z,19.78
2016-04-25T07:07:33.402Z,19.88
2016-04-25T07:08:31.202Z,19.88
2016-04-25T07:09:31.142Z,19.78
2016-04-25T07:10:31.379Z,19.88
2016-04-25T07:11:31.054Z,19.88
2016-04-25T07:12:33.932Z,19.68
2016-04-25T07:13:31.168Z,19.78
2016-04-25T07:14:30.905Z,19.88
2016-04-25T07:15:30.861Z,19.88
2016-04-25T07:16:33.817Z,19.78
2016-04-25T07:17:31.366Z,19.78
2016-04-25T07:18:34.041Z,20.17
2016-04-25T07:19:30.716Z,20.26
2016-04-25T07:20:36.859Z,20.17
2016-04-25T07:21:30.565Z,20.07
2016-04-25T07:22:31.723Z,20.07
2016-04-25T07:23:33.492Z,20.26
2016-04-25T07:24:30.698Z,19.97
2016-04-25T07:25:30.388Z,20.26
2016-04-25T07:26:33.344Z,20.36
2016-04-25T07:27:33.300Z,20.17
2016-04-25T07:28:40.584Z,20.17
2016-04-25T07:29:30.133Z,20.17
2016-04-25T07:30:33.151Z,20.36
2016-04-25T07:31:30.108Z,20.17
2016-04-25T07:32:29.923Z,20.26
2016-04-25T07:33:29.988Z,20.26
2016-04-25T07:34:33.194Z,20.07
2016-04-25T07:35:33.119Z,20.07
2016-04-25T07:36:29.871Z,20.26
2016-04-25T07:37:31.077Z,20.07
2016-04-25T07:38:29.985Z,20.17
2016-04-25T07:39:29.723Z,20.17
2016-04-25T07:40:29.678Z,20.17
2016-04-25T07:41:29.853Z,20.07
2016-04-25T07:42:32.621Z,20.17
2016-04-25T07:43:29.561Z,20.17
2016-04-25T07:44:29.485Z,20.07
2016-04-25T07:45:29.458Z,20.07
2016-04-25T07:46:29.398Z,20.17
2016-04-25T07:47:29.338Z,20.07
2016-04-25T07:48:29.293Z,20.55
2016-04-25T07:49:29.234Z,20.64
2016-04-25T07:50:29.190Z,20.45
2016-04-25T07:51:29.364Z,20.36
2016-04-25T07:52:29.586Z,20.36
2016-04-25T07:53:29.073Z,20.45
2016-04-25T07:54:29.310Z,20.36
2016-04-25T07:55:29.188Z,20.55
2016-04-25T07:56:28.909Z,20.26
2016-04-25T07:57:29.520Z,20.26
2016-04-25T07:58:31.868Z,20.55
2016-04-25T07:59:29.386Z,20.17
2016-04-25T08:00:28.732Z,20.64
2016-04-25T08:01:29.079Z,20.26
2016-04-25T08:02:33.394Z,20.64
2016-04-25T08:03:28.787Z,20.55
2016-04-25T08:04:31.572Z,20.45
2016-04-25T08:05:28.480Z,20.36
2016-04-25T08:06:34.467Z,20.55
2016-04-25T08:07:31.392Z,20.07
2016-04-25T08:08:28.738Z,20.26
2016-04-25T08:09:28.303Z,20.45
2016-04-25T08:10:28.259Z,20.26
2016-04-25T08:11:28.606Z,20.17
2016-04-25T08:12:31.430Z,20.17
2016-04-25T08:13:31.183Z,20.17
2016-04-25T08:14:28.045Z,20.17
2016-04-25T08:15:28.016Z,19.97
2016-04-25T08:16:27.955Z,20.26
2016-04-25T08:17:27.959Z,20.07
2016-04-25T08:18:27.867Z,20.17
2016-04-25T08:19:27.839Z,20.26
2016-04-25T08:20:27.779Z,20.26
2016-04-25T08:21:27.719Z,20.26
2016-04-25T08:22:30.754Z,20.07
2016-04-25T08:23:27.851Z,20.17
2016-04-25T08:24:27.791Z,20.17
2016-04-25T08:25:27.528Z,20.17
2016-04-25T08:26:27.515Z,20.17
2016-04-25T08:27:27.439Z,20.17
2016-04-25T08:28:27.848Z,20.17
2016-04-25T08:29:28.180Z,20.17
2016-04-25T08:30:27.292Z,20.26
2016-04-25T08:31:30.450Z,20.36
2016-04-25T08:32:27.297Z,20.17
2016-04-25T08:33:27.158Z,20.07
2016-04-25T08:34:27.240Z,20.36
2016-04-25T08:35:30.071Z,20.17
2016-04-25T08:36:27.042Z,20.36
2016-04-25T08:37:26.997Z,20.07
2016-04-25T08:38:27.016Z,20.17
2016-04-25T08:39:26.878Z,20.36
2016-04-25T08:40:27.052Z,20.45
2016-04-25T08:41:26.826Z,20.36
2016-04-25T08:42:27.141Z,20.55
2016-04-25T08:43:26.690Z,20.07
2016-04-25T08:44:26.647Z,20.26
2016-04-25T08:45:26.602Z,20.07
2016-04-25T08:46:26.559Z,20.17
2016-04-25T08:47:29.764Z,20.17
2016-04-25T08:48:26.439Z,20.17
2016-04-25T08:49:26.410Z,20.26
2016-04-25T08:50:26.350Z,20.26
2016-04-25T08:51:26.368Z,20.17
2016-04-25T08:52:26.465Z,20.07
2016-04-25T08:53:26.280Z,20.07
2016-04-25T08:54:26.158Z,20.17
2016-04-25T08:55:26.098Z,20.17
2016-04-25T08:56:38.085Z,20.17
2016-04-25T08:57:35.134Z,20.17
2016-04-25T08:58:26.887Z,20.17
2016-04-25T08:59:26.359Z,20.07
2016-04-25T09:00:25.877Z,20.17
2016-04-25T09:01:26.052Z,20.17
2016-04-25T09:02:25.851Z,20.26
2016-04-25T09:03:25.760Z,20.26
2016-04-25T09:04:28.794Z,20.17
2016-04-25T09:05:25.719Z,20.17
2016-04-25T09:06:26.143Z,20.17
2016-04-25T09:07:25.693Z,19.97
2016-04-25T09:08:28.852Z,19.78
2016-04-25T09:09:25.621Z,19.68
2016-04-25T09:10:25.451Z,19.78
2016-04-25T09:11:25.547Z,20.17
2016-04-25T09:12:25.596Z,19.88
2016-04-25T09:13:26.521Z,19.97
2016-04-25T09:14:25.177Z,19.78
2016-04-25T09:15:31.464Z,19.97
2016-04-25T09:16:25.140Z,20.17
2016-04-25T09:17:27.927Z,20.07
2016-04-25T09:18:25.114Z,20.17
2016-04-25T09:19:24.992Z,20.26
2016-04-25T09:20:24.947Z,20.17
2016-04-25T09:21:24.966Z,19.78
2016-04-25T09:22:24.891Z,19.88
2016-04-25T09:23:24.847Z,19.59
2016-04-25T09:24:27.758Z,19.88
2016-04-25T09:25:24.774Z,19.78
2016-04-25T09:26:24.651Z,19.88
2016-04-25T09:27:24.701Z,19.88
2016-04-25T09:28:24.891Z,19.88
2016-04-25T09:29:28.131Z,19.78
2016-04-25T09:30:24.709Z,19.88
2016-04-25T09:31:24.415Z,19.88
2016-04-25T09:32:24.370Z,19.78
2016-04-25T09:33:24.437Z,19.97
2016-04-25T09:34:24.298Z,20.07
2016-04-25T09:35:27.490Z,19.97
2016-04-25T09:36:25.022Z,20.07
2016-04-25T09:37:24.134Z,20.17
2016-04-25T09:38:24.059Z,19.97
2016-04-25T09:39:27.033Z,19.59
2016-04-25T09:40:24.080Z,20.07
2016-04-25T09:41:29.928Z,19.88
2016-04-25T09:42:26.194Z,19.88
2016-04-25T09:43:27.122Z,19.88
2016-04-25T09:44:23.356Z,19.88
2016-04-25T09:45:23.733Z,19.88
2016-04-25T09:46:24.033Z,19.78
2016-04-25T09:47:23.739Z,19.68
2016-04-25T09:48:26.586Z,19.78
2016-04-25T09:49:26.919Z,19.78
2016-04-25T09:50:26.841Z,19.78
2016-04-25T09:51:26.688Z,19.59
2016-04-25T09:52:23.424Z,19.59
2016-04-25T09:53:26.505Z,19.3
2016-04-25T09:54:23.882Z,19.78
2016-04-25T09:55:26.291Z,19.59
2016-04-25T09:56:26.044Z,19.88
2016-04-25T09:57:26.172Z,19.88
2016-04-25T09:58:26.143Z,19.68
2016-04-25T09:59:25.959Z,19.68
2016-04-25T10:00:23.040Z,19.59
2016-04-25T10:01:26.168Z,19.49
2016-04-25T10:02:25.920Z,19.3
2016-04-25T10:03:23.157Z,19.78
2016-04-25T10:04:26.003Z,19.49
2016-04-25T10:05:22.834Z,19.3
2016-04-25T10:06:22.743Z,19.59
2016-04-25T10:07:22.699Z,19.68
2016-04-25T10:08:22.670Z,19.88
2016-04-25T10:09:22.595Z,19.59
2016-04-25T10:10:25.770Z,19.49
2016-04-25T10:11:25.523Z,19.59
2016-04-25T10:12:22.478Z,19.59
2016-04-25T10:13:25.605Z,19.4
2016-04-25T10:14:22.531Z,19.3
2016-04-25T10:15:22.331Z,19.49
2016-04-25T10:16:22.505Z,19.59
2016-04-25T10:17:22.414Z,19.3
2016-04-25T10:18:22.307Z,19.2
2016-04-25T10:19:22.153Z,19.4
2016-04-25T10:20:22.078Z,19.11
2016-04-25T10:21:22.331Z,19.3
2016-04-25T10:22:22.255Z,19.59
2016-04-25T10:23:21.929Z,19.4
2016-04-25T10:24:21.948Z,19.4
2016-04-25T10:25:24.872Z,19.2
2016-04-25T10:26:28.300Z,19.49
2016-04-25T10:27:21.988Z,19.49
2016-04-25T10:28:22.162Z,19.68
2016-04-25T10:29:24.899Z,19.59
2016-04-25T10:30:25.090Z,19.4
2016-04-25T10:31:21.583Z,19.59
2016-04-25T10:32:24.741Z,19.68
2016-04-25T10:33:24.446Z,19.68
2016-04-25T10:34:21.558Z,19.4
2016-04-25T10:35:28.087Z,19.4
2016-04-25T10:36:21.277Z,19.4
2016-04-25T10:37:21.467Z,19.11
2016-04-25T10:38:21.189Z,19.2
2016-04-25T10:39:21.207Z,19.4
2016-04-25T10:40:24.132Z,19.11
2016-04-25T10:41:20.885Z,19.11
2016-04-25T10:42:23.997Z,19.49
2016-04-25T10:43:23.952Z,19.2
2016-04-25T10:44:22.361Z,19.68
2016-04-25T10:45:20.880Z,19.68
2016-04-25T10:46:21.039Z,19.59
2016-04-25T10:47:20.806Z,19.78
2016-04-25T10:48:20.794Z,19.59
2016-04-25T10:49:24.141Z,19.4
2016-04-25T10:50:20.644Z,19.59
2016-04-25T10:51:20.583Z,19.59
2016-04-25T10:52:23.774Z,19.78
2016-04-25T10:53:20.494Z,19.68
2016-04-25T10:54:23.685Z,19.68
2016-04-25T10:55:20.406Z,19.88
2016-04-25T10:56:20.456Z,19.78
2016-04-25T10:57:23.333Z,19.88
2016-04-25T10:58:20.243Z,19.59
2016-04-25T10:59:23.213Z,19.59
2016-04-25T11:00:20.155Z,19.78
2016-04-25T11:01:23.110Z,19.78
2016-04-25T11:02:23.113Z,19.78
2016-04-25T11:03:23.224Z,19.78
2016-04-25T11:04:20.009Z,19.68
2016-04-25T11:05:19.996Z,19.78
2016-04-25T11:06:19.873Z,19.68
2016-04-25T11:07:22.860Z,19.78
2016-04-25T11:08:22.770Z,19.88
2016-04-25T11:09:19.726Z,19.78
2016-04-25T11:10:19.681Z,19.68
2016-04-25T11:11:19.621Z,19.78
2016-04-25T11:12:19.421Z,19.68
2016-04-25T11:13:19.533Z,19.59
2016-04-25T11:14:20.628Z,19.59
2016-04-25T11:15:19.648Z,19.78
2016-04-25T11:16:22.384Z,19.78
2016-04-25T11:17:19.341Z,19.78
2016-04-25T11:18:22.484Z,19.49
2016-04-25T11:19:22.237Z,19.3
2016-04-25T11:20:19.427Z,19.68
2016-04-25T11:21:19.352Z,19.68
2016-04-25T11:22:19.120Z,19.59
2016-04-25T11:23:19.060Z,19.11
2016-04-25T11:24:19.172Z,19.68
2016-04-25T11:25:18.955Z,19.68
2016-04-25T11:26:19.286Z,19.88
2016-04-25T11:27:18.930Z,19.68
2016-04-25T11:28:21.855Z,19.68
2016-04-25T11:29:21.592Z,19.88
2016-04-25T11:30:21.751Z,19.68
2016-04-25T11:31:18.816Z,19.78
2016-04-25T11:32:21.647Z,19.59
2016-04-25T11:33:21.602Z,19.78
2016-04-25T11:34:21.558Z,19.68
2016-04-25T11:35:18.467Z,19.78
2016-04-25T11:36:24.626Z,19.59
2016-04-25T11:37:18.395Z,19.78
2016-04-25T11:38:18.397Z,19.78
2016-04-25T11:39:18.290Z,20.07
2016-04-25T11:40:21.293Z,19.97
2016-04-25T11:41:21.217Z,20.07
2016-04-25T11:42:18.126Z,20.17
2016-04-25T11:43:18.645Z,20.07
2016-04-25T11:44:18.084Z,20.17
2016-04-25T11:45:18.009Z,20.07
2016-04-25T11:46:20.965Z,20.07
2016-04-25T11:47:24.051Z,19.78
2016-04-25T11:48:23.882Z,19.68
2016-04-25T11:49:18.218Z,19.88
2016-04-25T11:50:20.783Z,19.88
2016-04-25T11:51:17.724Z,19.88
2016-04-25T11:52:17.710Z,19.78
2016-04-25T11:53:17.624Z,19.88
2016-04-25T11:54:17.595Z,19.78
2016-04-25T11:55:17.535Z,19.78
2016-04-25T11:56:18.195Z,19.3
2016-04-25T11:57:20.463Z,19.59
2016-04-25T11:58:20.388Z,19.78
2016-04-25T11:59:18.046Z,19.88
2016-04-25T12:00:17.299Z,19.78
2016-04-25T12:01:17.254Z,19.78
2016-04-25T12:02:17.211Z,19.78
2016-04-25T12:03:20.167Z,19.78
2016-04-25T12:04:17.107Z,19.78
2016-04-25T12:05:20.078Z,19.59
2016-04-25T12:06:17.003Z,19.68
2016-04-25T12:07:22.989Z,19.78
2016-04-25T12:08:19.930Z,19.68
2016-04-25T12:09:16.870Z,19.88
2016-04-25T12:10:16.951Z,20.07
2016-04-25T12:11:17.203Z,20.07
2016-04-25T12:12:19.738Z,19.88
2016-04-25T12:13:16.694Z,20.07
2016-04-25T12:14:16.493Z,19.68
2016-04-25T12:15:19.667Z,19.88
2016-04-25T12:16:16.544Z,20.07
2016-04-25T12:17:17.110Z,19.78
2016-04-25T12:18:21.004Z,19.88
2016-04-25T12:19:19.507Z,19.78
2016-04-25T12:20:16.541Z,19.88
2016-04-25T12:21:16.293Z,19.78
2016-04-25T12:22:16.249Z,19.68
2016-04-25T12:23:19.236Z,19.78
2016-04-25T12:24:16.176Z,20.17
2016-04-25T12:26:16.041Z,20.07
2016-04-25T12:27:19.028Z,19.97
2016-04-25T12:28:15.999Z,19.88
2016-04-25T12:29:15.909Z,19.97
2016-04-25T12:30:19.021Z,19.97
2016-04-25T12:31:15.820Z,19.88
2016-04-25T12:32:15.838Z,19.78
2016-04-25T12:33:18.795Z,19.88
2016-04-25T12:34:20.281Z,19.77
2016-04-25T12:35:16.050Z,19.88
2016-04-25T12:36:15.583Z,19.78
2016-04-25T12:37:15.539Z,19.68
2016-04-25T12:38:18.511Z,19.78
2016-04-25T12:39:15.466Z,19.88
2016-04-25T12:40:15.406Z,19.88
2016-04-25T12:41:15.597Z,19.88
2016-04-25T12:42:15.365Z,19.88
2016-04-25T12:43:21.446Z,19.78
2016-04-25T12:44:16.089Z,19.88
2016-04-25T12:45:24.811Z,19.88
2016-04-25T12:46:15.110Z,19.78
2016-04-25T12:47:15.083Z,19.68
2016-04-25T12:48:15.006Z,19.68
2016-04-25T12:49:18.118Z,19.88
2016-04-25T12:50:14.903Z,19.97
2016-04-25T12:51:23.889Z,20.17
2016-04-25T12:52:14.907Z,19.78
2016-04-25T12:53:17.973Z,20.07
2016-04-25T12:54:14.726Z,20.17
2016-04-25T12:55:17.696Z,20.17
2016-04-25T12:56:14.669Z,20.17
2016-04-25T12:57:20.645Z,20.17
2016-04-25T12:58:14.710Z,19.97
2016-04-25T12:59:20.510Z,19.97
2016-04-25T13:00:14.387Z,20.36
2016-04-25T13:01:14.406Z,20.17